ADDS METAR Data INFO
IDs: Format: Raw Decoded Include TAF

Data at: 1133 UTC 29 May 2017

KPWG 291056Z AUTO 32005KT 6SM BR BKN027 OVC033 21/21 A2998 RMK AO2 LTG DSNT N AND E AND S TSB38E56 SLP158 T02060206 $
KPWG 291049Z AUTO 32004KT 7SM VCTS OVC027 21/21 A2998 RMK AO2 LTG DSNT ALQDS TSB38 $
KPWG 291012Z AUTO 00000KT 10SM FEW007 BKN017 OVC023 21/21 A2999 RMK AO2 $
KPWG 290956Z AUTO 00000KT 10SM BKN009 OVC017 21/21 A2999 RMK AO2 LTG DSNT SW CIG 006V013 SLP162 T02110206 $
KPWG 290919Z AUTO 00000KT 7SM BKN009 OVC016 21/21 A2998 RMK AO2 LTG DSNT SW CIG 003V012 $
KPWG 290906Z AUTO 17004KT 8SM SCT009 BKN016 21/20 A2998 RMK AO2 $
KPWG 290856Z AUTO 00000KT 7SM FEW011 21/20 A2997 RMK AO2 SLP154 T02060200 55005 $
KPWG 290756Z AUTO 36006KT 10SM CLR 21/20 A2995 RMK AO2 SLP149 T02060200 $
KPWG 290656Z AUTO 01004KT 10SM CLR 21/21 A2998 RMK AO2 LTG DSNT N AND S TSE25B27E49 SLP158 T02110206 $
KPWG 290627Z AUTO 03008KT 8SM VCTS CLR 21/21 A2999 RMK AO2 LTG DSNT N AND S AND NW TSE25B27 $
KPWG 290556Z AUTO 36008KT 10SM VCTS CLR 21/21 A2999 RMK AO2 LTG DSNT ALQDS TSE10B38 SLP159 60084 T02110206 10250 20200 403220200 58001 $
KPWG 290549Z AUTO 02007KT 10SM VCTS CLR 21/21 A2999 RMK AO2 LTG DSNT ALQDS TSE10B38 403220200 $
KPWG 290521Z AUTO 02009KT 7SM CLR 21/21 A3000 RMK AO2 LTG DSNT SW AND W TSE10 $
KPWG 290456Z AUTO 00000KT 9SM TS CLR 21/21 A3000 RMK AO2 LTG DSNT SW TSB40 SLP162 T02110206 $
KPWG 290451Z AUTO 08003KT 9SM TS CLR 21/21 A2999 RMK AO2 LTG DSNT SW TSB40 $
KPWG 290356Z AUTO 04009KT 10SM CLR 21/21 A2999 RMK AO2 RAE49 SLP160 P0003 T02110206 $
KPWG 290256Z AUTO 28005KT 10SM -RA FEW055 21/19 A3003 RMK AO2 PRESRR SLP176 P0029 60081 T02060189 53044 $
KPWG 290216Z AUTO 08013KT 4SM RA BR FEW006 BKN030 OVC036 21/20 A2996 RMK AO2 PRESFR P0028 $
KPWG 290156Z AUTO VRB06G14KT 2 1/2SM +RA BR FEW007 OVC015 22/21 A3002 RMK AO2 VIS 2V5 SLP171 P0029 T02170211 $
KPWG 290140Z AUTO 19009KT 9SM RA BKN015 22/22 A3002 RMK AO2 P0004 $
KPWG 290102Z AUTO 02012G28KT 4SM -RA BR SCT015 BKN032 BKN110 22/21 A2987 RMK AO2 P0002 $
KPWG 290056Z AUTO 35015G31KT 1 1/2SM +RA BR BKN015 BKN032 BKN110 22/21 A2987 RMK AO2 PK WND 35031/0050 RAB24 SLP121 P0023 T02220211 $
KPWG 290053Z AUTO 36022G31KT 1 3/4SM +RA BR BKN015 BKN065 22/21 A2986 RMK AO2 PK WND 35031/0050 RAB24 PRESFR P0020 $
KPWG 282356Z AUTO 01010KT 10SM OVC017 25/22 A2990 RMK AO2 SLP132 T02500217 10322 20250 55009 $
KPWG 282323Z AUTO 35012KT 10SM BKN017 26/22 A2990 RMK AO2 $
KPWG 282256Z AUTO 36011KT 10SM FEW016 26/22 A2990 RMK AO2 SLP129 T02560217 $
KPWG 282213Z AUTO 35012KT 10SM SCT016 BKN035 26/22 A2990 RMK AO2 $
KPWG 282156Z AUTO 36015KT 10SM BKN016 BKN035 27/22 A2990 RMK AO2 SLP130 T02670222 $
KPWG 282056Z AUTO 34013KT 8SM FEW034 29/23 A2993 RMK AO2 WSHFT 1948 SLP139 T02890228 53006 $
KPWG 282013Z AUTO 34014KT 10SM BKN034 BKN041 27/23 A2993 RMK AO2 WSHFT 1948 $
KPWG 281956Z AUTO 34014KT 10SM FEW021 BKN034 OVC045 27/23 A2992 RMK AO2 SLP137 T02720233 $
KPWG 281856Z AUTO 16007KT 10SM BKN030 BKN034 BKN060 31/24 A2991 RMK AO2 SLP130 T03110239 $
KPWG 281846Z AUTO 17008KT 10SM BKN028 BKN055 31/24 A2991 RMK AO2 $
KPWG 281756Z AUTO 14009KT 10SM SCT026 BKN055 29/24 A2992 RMK AO2 SLP136 T02940239 10294 20222 50002 $
KPWG 281656Z AUTO 14008KT 10SM OVC024 28/23 A2992 RMK AO2 SLP136 T02830233 $
KPWG 281556Z AUTO 14007KT 10SM OVC022 28/23 A2992 RMK AO2 SLP133 T02830233 $
KPWG 281456Z AUTO 14009KT 10SM BKN020 28/23 A2991 RMK AO2 SLP131 T02780233 53012 $
KPWG 281356Z AUTO 15008KT 10SM CLR 27/23 A2990 RMK AO2 SLP126 T02670228 $
KPWG 281256Z AUTO 16008KT 10SM CLR 24/22 A2989 RMK AO2 SLP123 T02440222 $
KPWG 281156Z AUTO 17007KT 7SM CLR 22/22 A2988 RMK AO2 SLP119 T02220217 10256 20222 53025 $
KPWG 281056Z AUTO 17009KT 9SM CLR 23/22 A2982 RMK AO2 SLP100 T02280217 $
KPWG 280956Z AUTO 18009KT 10SM CLR 23/22 A2981 RMK AO2 SLP096 T02330222 $
KPWG 280856Z AUTO 16008KT 10SM CLR 24/22 A2980 RMK AO2 SLP093 T02390222 55002 $
KPWG 280756Z AUTO 17011KT 10SM CLR 24/22 A2979 RMK AO2 SLP089 T02440217 $
KPWG 280656Z AUTO 18011G18KT 10SM CLR 26/22 A2978 RMK AO2 SLP085 T02560222 $
KPWG 280556Z AUTO 19014KT 10SM CLR 26/22 A2980 RMK AO2 SLP095 T02610222 10328 20261 403330250 55002 $
KPWG 280456Z AUTO 18016G22KT 10SM CLR 27/23 A2980 RMK AO2 SLP094 T02670228 $
KPWG 280356Z AUTO 18015G20KT 10SM CLR 28/23 A2981 RMK AO2 SLP097 T02780228 $
KPWG 280256Z AUTO 16011G18KT 10SM CLR 29/23 A2981 RMK AO2 SLP097 T02890233 53009 $
KPWG 280156Z AUTO 16010KT 10SM CLR 29/24 A2980 RMK AO2 SLP094 T02940239 $
KPWG 280056Z AUTO 16011KT 9SM CLR 31/24 A2979 RMK AO2 SLP089 T03110239 $
KPWG 272356Z AUTO 17011KT 9SM CLR 33/24 A2979 RMK AO2 SLP087 T03280239 10333 20294 56016 $


Page loaded:  11:33 UTC  |   04:33 AM Pacific  |   05:33 AM Mountain  |   06:33 AM Central  |   07:33 AM Eastern

 

ADVISORIES

FORECASTS

FORECASTS

OBSERVATIONS

USER TOOLS

ABOUT US